Greenbush, Virginia
Current Conditions -  °F | °C
As of 2:55 AM on Sunday 26 Oct 2014 (Local Time) from KMFV Reporting Station
Clear Clear  
Wind Chill: 59°   Ceiling: Unl
Heat Index: 59°   Visibility: 10mi
Dew Point: 46°   Wind: 6mph
Humidity: 63%   Direction: 250°WSW
Pressure: 29.71"   Gusts: NA
Location:  37.74°N, 75.68°W
Report Text: KMFV 260655Z AUTO 25005KT 10SM CLR 15/08 A2971 RMK AO2
Loading
Personal Weather Stations






























Interactive Weather Map
Tropical Storm Tracking
New forecast layout! Learn more

10-Day Weather Forecast

Advertisements
Track Severe Weather on mobile